Aérodrome :
LOGIN :

S'inscrire | Disclaimer

   EN    FR    IT 

 










Légende :    VFR   VFR Marginal   IFR   IFR Intensif   IFR Très Intensif
Visi : 
Plafond : 
>= 8 km
>= 3000ft
5 à 8 km
1000 à 3000 ft
1500m à 5 km
500 à 1000 ft
800 à 1500m
200 à 500 ft
< 800m
< 200 ft
Symboles :   Orages  Brouillard  Fortes neiges  Fortes précipitations  Vent > 20 kt
SIGMETs :   Divers  Orages  Givrage  Turbulence  Onde Orograph.  Cendres Volcan.







- Altitude de l'aérodrome : 364 ft
- Voir les cartes d'approche


LFAQ - Albert Bray

DERNIER METAR :
  • 221000Z AUTO 17011KT 2000 -SN BR OVC004 M01/M01 Q1005 TEMPO 17015G25KT BECMG 6000 NSW OVC006

METARs EXPIRÉS :
  • 220930Z AUTO 19010KT 2000 -SN BR OVC004 M01/M01 Q1006 TEMPO 17015G25KT BECMG 6000 NSW OVC006
  • 220900Z AUTO 17013KT 1800 -SN BR OVC004 M01/M02 Q1006 TEMPO 17015G25KT 1200
  • 220830Z AUTO 17013KT 1500 SN BR OVC004 M02/M02 Q1006 TEMPO 17015G25KT
  • 220800Z AUTO 17015KT 2500 -SN BR OVC005/// ///TCU M02/M02 Q1006 TEMPO 18015G25KT SN OVC002
  • 220730Z AUTO 17016KT 2800 -SN BR OVC005 M02/M02 Q1007 TEMPO 18015G25KT SN

TAF TAF LFAQ
Valide du 22 à 09h jusqu'au 22 à 18h UTC


220800Z 2209/2218 17013KT 2000 SN BR OVC006
TEMPO 2209/2211 17015G25KT 1200 OVC002
BECMG 2211/2213 6000 NSW
Pas de NOTAMs connus pour ce terrain.



MET'MAP, la Météo Aéronautique d'un coup d'oeil ! - Copyright ORBIFLY Décembre 2007 - Disclaimer

ORBIFLY MET'MAP TEAM :

Programmation & Développement : Alexandra Zaïnal
Conception & Développement : Baudouin d'Aumeries
Co-Programmation & Développement : Marc-Olivier Méhu
Soutien technique & logistique : Manuel Goepfert

Contact : metmap@orbifly.com




SOURCES & CREDITS :

   NOAA